TimeCST,TemperatureF,Dew PointF,Humidity,Sea Level PressureIn,VisibilityMPH,Wind Direction,Wind SpeedMPH,Gust SpeedMPH,PrecipitationIn,Events,Conditions,WindDirDegrees,DateUTC
12:53 AM,34.0,27.0,75,29.71,10.0,SW,6.9,-,N/A,,Clear,220,2013-12-29 06:53:00
1:53 AM,33.1,26.1,75,29.72,10.0,SW,6.9,-,N/A,,Clear,220,2013-12-29 07:53:00
2:53 AM,33.1,26.1,75,29.75,10.0,SW,6.9,-,N/A,,Clear,230,2013-12-29 08:53:00
3:53 AM,32.0,26.1,79,29.76,10.0,NW,9.2,-,N/A,,Overcast,320,2013-12-29 09:53:00
4:26 AM,30.9,26.1,82,29.76,7.0,North,15.0,-,N/A,,Overcast,10,2013-12-29 10:26:00
4:32 AM,30.9,27.0,85,29.76,6.0,NNE,20.7,-,N/A,,Overcast,20,2013-12-29 10:32:00
4:42 AM,30.0,27.0,88,29.76,4.0,NNE,19.6,-,N/A,,Overcast,30,2013-12-29 10:42:00
4:53 AM,30.0,27.0,88,29.80,6.0,NE,20.7,-,N/A,,Overcast,40,2013-12-29 10:53:00
5:53 AM,28.0,23.0,81,29.86,10.0,NNE,18.4,-,N/A,,Overcast,20,2013-12-29 11:53:00
6:23 AM,26.1,19.9,78,29.86,10.0,North,19.6,29.9,N/A,,Overcast,10,2013-12-29 12:23:00
6:49 AM,24.8,19.4,80,29.88,10.0,North,19.6,26.5,N/A,,Overcast,10,2013-12-29 12:49:00
6:53 AM,25.0,19.0,78,29.91,10.0,North,20.7,29.9,N/A,,Overcast,10,2013-12-29 12:53:00
7:38 AM,24.1,19.9,84,29.90,7.0,North,18.4,25.3,N/A,,Overcast,10,2013-12-29 13:38:00
7:45 AM,23.0,19.9,88,29.91,5.0,NNE,17.3,-,0.00,Rain,Light Freezing Rain,20,2013-12-29 13:45:00
7:53 AM,23.0,19.9,88,29.94,3.0,North,15.0,-,0.00,Rain,Light Freezing Rain,10,2013-12-29 13:53:00
8:11 AM,21.9,18.0,85,29.92,6.0,North,20.7,27.6,0.00,,Overcast,360,2013-12-29 14:11:00
8:49 AM,21.2,15.8,80,29.93,8.0,North,20.7,26.5,0.00,,Overcast,360,2013-12-29 14:49:00
8:53 AM,21.0,16.0,81,29.97,10.0,North,18.4,26.5,0.00,,Overcast,350,2013-12-29 14:53:00
9:12 AM,21.0,15.1,78,29.94,10.0,NNW,17.3,24.2,N/A,,Overcast,340,2013-12-29 15:12:00
9:53 AM,19.9,12.0,71,29.99,10.0,North,20.7,-,N/A,,Overcast,350,2013-12-29 15:53:00
10:43 AM,19.0,10.0,68,29.97,10.0,NNW,19.6,25.3,N/A,,Overcast,340,2013-12-29 16:43:00
10:53 AM,19.0,9.0,65,30.01,10.0,North,17.3,23.0,N/A,,Overcast,350,2013-12-29 16:53:00
11:53 AM,19.0,9.0,65,29.99,10.0,NNW,18.4,-,N/A,,Overcast,330,2013-12-29 17:53:00
12:53 PM,17.1,6.1,62,30.01,10.0,NNW,17.3,-,N/A,,Overcast,330,2013-12-29 18:53:00
1:21 PM,17.1,6.1,62,29.98,10.0,NNW,17.3,-,N/A,,Mostly Cloudy,330,2013-12-29 19:21:00
1:53 PM,17.1,5.0,59,30.02,10.0,NNW,18.4,24.2,N/A,,Mostly Cloudy,330,2013-12-29 19:53:00
2:28 PM,16.0,3.9,59,30.00,10.0,NNW,18.4,23.0,N/A,,Scattered Clouds,330,2013-12-29 20:28:00
2:53 PM,15.1,3.9,61,30.04,10.0,NNW,15.0,-,N/A,,Partly Cloudy,330,2013-12-29 20:53:00
3:53 PM,14.0,1.0,56,30.07,10.0,NNW,10.4,-,N/A,,Partly Cloudy,330,2013-12-29 21:53:00
4:53 PM,10.9,1.0,64,30.09,10.0,NW,11.5,-,N/A,,Scattered Clouds,310,2013-12-29 22:53:00
5:53 PM,9.0,-0.9,64,30.12,10.0,WNW,11.5,-,N/A,,Partly Cloudy,300,2013-12-29 23:53:00
6:53 PM,7.0,-4.0,61,30.14,10.0,WNW,10.4,-,N/A,,Clear,300,2013-12-30 00:53:00
7:53 PM,5.0,-5.1,63,30.18,10.0,WNW,15.0,-,N/A,,Clear,300,2013-12-30 01:53:00
8:53 PM,1.9,-7.1,66,30.20,10.0,WNW,11.5,-,N/A,,Clear,300,2013-12-30 02:53:00
9:53 PM,-0.0,-9.0,66,30.22,10.0,WNW,12.7,-,N/A,,Clear,300,2013-12-30 03:53:00
10:53 PM,-2.0,-9.9,69,30.23,10.0,WNW,11.5,-,N/A,,Clear,300,2013-12-30 04:53:00
11:53 PM,-4.0,-11.9,69,30.25,10.0,WNW,10.4,-,N/A,,Clear,300,2013-12-30 05:53:00